Time;durP1;ratioP1;P1;durP2;ratioP2;P2;SDS_P1;SDS_P2;PMS_P1;PMS_P2;Temp;Humidity;BMP_temperature;BMP_pressure;BME280_temperature;BME280_humidity;BME280_pressure;Samples;Min_cycle;Max_cycle;Signal;HPM_P1;HPM_P2
2022/03/04 00:00:40;;;;;;;21.55;14.38;;;;;;;-3.64;100.00;92870.22;2097003;28;20028;-82
2022/03/04 00:01:43;;;;;;;17.75;13.25;;;;;;;-3.60;100.00;92871.03;2106175;28;20027;-80
2022/03/04 00:02:45;;;;;;;17.40;13.40;;;;;;;-3.78;100.00;92872.41;2106463;28;20119;-81
2022/03/04 00:03:46;;;;;;;19.88;13.13;;;;;;;-3.83;100.00;92870.81;2104414;28;20098;-81
2022/03/04 00:04:47;;;;;;;19.95;13.63;;;;;;;-3.83;100.00;92868.19;2099319;28;20020;-82
2022/03/04 00:05:48;;;;;;;18.80;13.13;;;;;;;-3.80;100.00;92870.91;2105602;28;20031;-83
2022/03/04 00:06:49;;;;;;;19.65;14.05;;;;;;;-3.91;100.00;92874.31;2121527;27;20548;-83
2022/03/04 00:07:50;;;;;;;19.23;12.98;;;;;;;-3.97;100.00;92868.56;2106005;28;20338;-82
2022/03/04 00:08:51;;;;;;;18.77;13.73;;;;;;;-3.72;100.00;92866.63;2096803;28;20021;-83
2022/03/04 00:09:52;;;;;;;21.25;13.65;;;;;;;-3.84;100.00;92866.69;2106084;28;20098;-80
2022/03/04 00:10:53;;;;;;;19.20;14.23;;;;;;;-3.95;100.00;92868.22;2100341;28;20028;-81
2022/03/04 00:11:53;;;;;;;19.13;13.38;;;;;;;-3.89;100.00;92867.66;2086881;28;20053;-83
2022/03/04 00:12:55;;;;;;;20.23;12.50;;;;;;;-3.81;100.00;92877.22;2096085;28;20049;-82
2022/03/04 00:13:56;;;;;;;20.35;14.15;;;;;;;-4.00;100.00;92871.06;2099933;28;20032;-81
2022/03/04 00:14:57;;;;;;;20.27;13.68;;;;;;;-4.07;100.00;92872.41;2093105;28;20041;-82
2022/03/04 00:15:58;;;;;;;19.10;13.10;;;;;;;-4.03;100.00;92869.88;2101367;28;20048;-83
2022/03/04 00:16:59;;;;;;;18.33;12.75;;;;;;;-3.88;100.00;92873.66;2105457;28;20500;-81
2022/03/04 00:18:00;;;;;;;19.33;13.57;;;;;;;-3.96;100.00;92866.72;2098842;28;20079;-80
2022/03/04 00:19:09;;;;;;;18.83;13.68;;;;;;;-3.99;100.00;92870.00;2097386;28;20566;-81
2022/03/04 00:20:10;;;;;;;19.20;13.48;;;;;;;-3.94;100.00;92869.75;2098671;28;20500;-80
2022/03/04 00:21:11;;;;;;;18.70;13.25;;;;;;;-3.88;100.00;92869.19;2102863;28;20053;-81
2022/03/04 00:22:14;;;;;;;18.98;13.13;;;;;;;-3.93;100.00;92872.03;2108653;28;20015;-82
2022/03/04 00:23:15;;;;;;;18.38;12.82;;;;;;;-3.90;100.00;92862.78;2100986;28;20551;-81
2022/03/04 00:24:18;;;;;;;19.25;12.50;;;;;;;-3.97;100.00;92867.81;2094442;28;20020;-84
2022/03/04 00:25:19;;;;;;;18.55;12.80;;;;;;;-4.01;100.00;92878.13;2107677;28;20476;-80
2022/03/04 00:26:20;;;;;;;21.08;13.43;;;;;;;-3.99;100.00;92870.00;2106036;28;20020;-83
2022/03/04 00:27:21;;;;;;;17.27;13.55;;;;;;;-4.01;100.00;92872.91;2106620;28;20181;-82
2022/03/04 00:28:22;;;;;;;19.83;13.50;;;;;;;-3.90;100.00;92870.63;2106012;28;20066;-82
2022/03/04 00:29:23;;;;;;;17.73;12.73;;;;;;;-4.07;100.00;92867.19;2104099;28;20114;-83
2022/03/04 00:30:24;;;;;;;18.23;13.63;;;;;;;-4.06;100.00;92873.91;2097499;28;20051;-82
2022/03/04 00:31:25;;;;;;;16.08;12.73;;;;;;;-4.00;100.00;92869.22;2097757;28;20024;-82
2022/03/04 00:32:26;;;;;;;15.32;11.75;;;;;;;-4.08;100.00;92870.88;2097963;28;20016;-83
2022/03/04 00:33:30;;;;;;;18.25;12.38;;;;;;;-4.03;100.00;92879.56;2098329;28;20016;-83
2022/03/04 00:34:31;;;;;;;21.13;13.98;;;;;;;-4.00;100.00;92876.28;2095271;28;20020;-81
2022/03/04 00:35:32;;;;;;;19.98;13.10;;;;;;;-3.93;99.62;92872.03;2090670;28;20144;-82
2022/03/04 00:36:35;;;;;;;18.45;12.98;;;;;;;-4.00;99.79;92868.44;2097811;28;20051;-83
2022/03/04 00:37:36;;;;;;;18.55;12.90;;;;;;;-4.03;100.00;92875.09;2097760;28;20044;-82
2022/03/04 00:38:37;;;;;;;17.85;12.40;;;;;;;-4.11;100.00;92874.13;2097580;28;20026;-80
2022/03/04 00:39:38;;;;;;;18.73;14.23;;;;;;;-4.04;100.00;92873.56;2111927;28;20023;-83
2022/03/04 00:40:39;;;;;;;18.55;12.85;;;;;;;-4.08;100.00;92883.94;2104157;28;20028;-81
2022/03/04 00:41:40;;;;;;;19.23;12.90;;;;;;;-4.31;100.00;92875.78;2097451;28;20087;-80
2022/03/04 00:42:42;;;;;;;14.35;12.23;;;;;;;-4.28;100.00;92878.84;2097561;28;20024;-81
2022/03/04 00:43:43;;;;;;;18.45;12.93;;;;;;;-4.24;100.00;92871.88;2105474;28;20174;-81
2022/03/04 00:44:44;;;;;;;16.33;12.05;;;;;;;-4.25;100.00;92878.94;2105389;28;20081;-81
2022/03/04 00:45:45;;;;;;;16.92;12.27;;;;;;;-4.26;100.00;92879.25;2108075;28;20016;-80
2022/03/04 00:46:46;;;;;;;19.52;13.35;;;;;;;-4.25;100.00;92881.56;2105855;28;20020;-83
2022/03/04 00:47:47;;;;;;;20.23;13.45;;;;;;;-4.24;100.00;92877.84;2102930;28;20392;-83
2022/03/04 00:48:48;;;;;;;23.10;13.80;;;;;;;-4.34;100.00;92873.09;2103973;28;20383;-81
2022/03/04 00:49:49;;;;;;;18.02;12.77;;;;;;;-4.35;100.00;92879.38;2100576;28;20028;-81
2022/03/04 00:50:49;;;;;;;16.60;12.10;;;;;;;-4.23;100.00;92873.41;2097596;28;20048;-82
2022/03/04 00:51:51;;;;;;;17.85;13.73;;;;;;;-4.37;100.00;92873.75;2096790;28;20023;-83
2022/03/04 00:52:51;;;;;;;19.77;14.40;;;;;;;-4.37;100.00;92878.97;2097728;28;20035;-80
2022/03/04 00:53:53;;;;;;;20.83;13.90;;;;;;;-4.38;100.00;92875.59;2089847;28;20131;-81
2022/03/04 00:54:54;;;;;;;18.98;13.20;;;;;;;-4.39;100.00;92876.69;2097294;28;20429;-82
2022/03/04 00:55:56;;;;;;;18.90;13.05;;;;;;;-4.38;100.00;92878.22;2096564;28;20481;-83
2022/03/04 00:56:57;;;;;;;22.48;13.07;;;;;;;-4.37;100.00;92874.50;2090371;28;20021;-79
2022/03/04 00:57:58;;;;;;;19.45;12.68;;;;;;;-4.37;100.00;92873.75;2098351;28;20935;-82
2022/03/04 00:59:00;;;;;;;18.20;13.15;;;;;;;-4.26;100.00;92868.81;2104740;28;20027;-81
2022/03/04 01:00:01;;;;;;;22.27;14.35;;;;;;;-4.33;100.00;92877.22;2113808;28;20047;-79
2022/03/04 01:01:04;;;;;;;18.92;13.77;;;;;;;-4.47;100.00;92872.34;2112794;28;20036;-80
2022/03/04 01:02:05;;;;;;;19.05;13.95;;;;;;;-4.42;100.00;92881.78;2111811;28;20039;-81
2022/03/04 01:03:06;;;;;;;19.15;13.75;;;;;;;-4.48;100.00;92876.03;2114062;28;20102;-79
2022/03/04 01:04:07;;;;;;;18.20;13.75;;;;;;;-4.49;100.00;92877.13;2112707;28;20111;-82
2022/03/04 01:05:08;;;;;;;17.83;12.93;;;;;;;-4.53;100.00;92873.63;2105564;28;20529;-81
2022/03/04 01:06:09;;;;;;;20.20;13.25;;;;;;;-4.45;100.00;92877.22;2090443;28;20024;-81
2022/03/04 01:07:10;;;;;;;17.23;12.77;;;;;;;-4.43;100.00;92877.66;2097457;28;20036;-81
2022/03/04 01:08:11;;;;;;;18.35;12.75;;;;;;;-4.50;100.00;92873.00;2097380;28;20055;-82
2022/03/04 01:09:12;;;;;;;20.10;13.60;;;;;;;-4.31;100.00;92880.25;2098952;28;20055;-80
2022/03/04 01:10:13;;;;;;;19.95;13.27;;;;;;;-4.45;100.00;92874.63;2108340;28;20023;-82
2022/03/04 01:11:14;;;;;;;18.02;13.55;;;;;;;-4.50;100.00;92870.38;2105467;28;20028;-80
2022/03/04 01:12:15;;;;;;;19.35;13.27;;;;;;;-4.70;100.00;92873.84;2088474;28;20659;-80
2022/03/04 01:13:17;;;;;;;15.70;12.32;;;;;;;-4.70;100.00;92872.00;2089085;28;20055;-83
2022/03/04 01:14:19;;;;;;;19.95;13.30;;;;;;;-4.60;100.00;92868.22;2089355;28;20023;-80
2022/03/04 01:15:20;;;;;;;17.17;13.18;;;;;;;-4.75;100.00;92872.22;2096409;28;20032;-80
2022/03/04 01:16:21;;;;;;;21.20;13.63;;;;;;;-4.80;100.00;92864.63;2105624;28;20043;-81
2022/03/04 01:17:22;;;;;;;18.25;13.57;;;;;;;-4.78;100.00;92872.91;2106967;28;20329;-82
2022/03/04 01:18:24;;;;;;;19.13;13.75;;;;;;;-4.80;100.00;92867.22;2097332;28;20048;-80
2022/03/04 01:19:25;;;;;;;19.85;13.23;;;;;;;-4.66;100.00;92869.50;2097842;28;20032;-82
2022/03/04 01:20:26;;;;;;;18.98;13.65;;;;;;;-4.72;100.00;92866.38;2097827;28;20031;-82
2022/03/04 01:21:28;;;;;;;20.20;14.25;;;;;;;-4.86;100.00;92869.28;2097065;28;20025;-82
2022/03/04 01:22:29;;;;;;;19.48;12.82;;;;;;;-4.74;100.00;92878.19;2103683;28;20043;-81
2022/03/04 01:23:29;;;;;;;17.33;12.70;;;;;;;-4.72;100.00;92870.81;2109543;28;20072;-81
2022/03/04 01:24:30;;;;;;;19.33;13.82;;;;;;;-4.67;100.00;92868.00;2104815;28;20028;-79
2022/03/04 01:25:32;;;;;;;18.48;13.32;;;;;;;-4.75;100.00;92868.84;2104556;28;20023;-81
2022/03/04 01:26:33;;;;;;;19.20;13.60;;;;;;;-4.86;100.00;92865.94;2113682;28;20055;-84
2022/03/04 01:27:34;;;;;;;16.63;13.15;;;;;;;-4.85;100.00;92867.44;2094998;28;20012;-83
2022/03/04 01:28:35;;;;;;;18.95;13.05;;;;;;;-4.77;100.00;92874.41;2098650;28;20378;-82
2022/03/04 01:29:36;;;;;;;16.50;13.18;;;;;;;-4.70;100.00;92869.41;2114743;27;20024;-80
2022/03/04 01:30:37;;;;;;;20.17;13.23;;;;;;;-4.73;100.00;92877.88;2113371;28;20028;-83
2022/03/04 01:31:38;;;;;;;17.95;13.20;;;;;;;-4.91;100.00;92873.97;2114596;27;20570;-81
2022/03/04 01:32:39;;;;;;;18.20;12.68;;;;;;;-4.88;100.00;92868.84;2104097;28;20070;-83
2022/03/04 01:33:40;;;;;;;19.40;12.82;;;;;;;-4.78;100.00;92870.28;2105578;28;20024;-82
2022/03/04 01:34:42;;;;;;;18.42;13.10;;;;;;;-4.93;100.00;92865.69;2097802;28;20023;-81
2022/03/04 01:35:44;;;;;;;17.08;12.68;;;;;;;-4.96;100.00;92872.34;2097962;28;20111;-84
2022/03/04 01:36:45;;;;;;;18.42;13.68;;;;;;;-4.93;100.00;92874.28;2096938;28;20017;-82
2022/03/04 01:37:47;;;;;;;17.08;13.05;;;;;;;-4.96;100.00;92871.56;2105500;28;20016;-81
2022/03/04 01:38:48;;;;;;;18.02;13.25;;;;;;;-4.94;100.00;92870.16;2105698;28;20016;-81
2022/03/04 01:39:49;;;;;;;21.27;13.88;;;;;;;-5.03;100.00;92874.72;2106372;28;20016;-81
2022/03/04 01:40:50;;;;;;;18.25;12.85;;;;;;;-4.98;100.00;92869.28;2106419;28;20034;-80
2022/03/04 01:41:51;;;;;;;20.67;13.95;;;;;;;-4.96;100.00;92872.34;2087530;28;20024;-81
2022/03/04 01:42:52;;;;;;;21.33;13.77;;;;;;;-5.00;100.00;92868.06;2097183;28;20071;-79
2022/03/04 01:43:53;;;;;;;19.30;13.45;;;;;;;-4.97;100.00;92865.59;2111942;28;20085;-83
2022/03/04 01:44:54;;;;;;;16.77;12.75;;;;;;;-4.95;100.00;92863.44;2105559;28;20103;-82
2022/03/04 01:45:55;;;;;;;19.85;14.07;;;;;;;-4.90;100.00;92870.28;2096921;28;20408;-81
2022/03/04 01:46:56;;;;;;;20.65;12.95;;;;;;;-4.92;100.00;92869.81;2088665;28;20037;-80
2022/03/04 01:47:57;;;;;;;17.95;13.48;;;;;;;-4.78;100.00;92859.06;2086116;28;20050;-82
2022/03/04 01:48:58;;;;;;;19.17;13.35;;;;;;;-4.84;100.00;92867.13;2089979;28;20029;-80
2022/03/04 01:49:59;;;;;;;18.27;13.13;;;;;;;-5.01;100.00;92866.56;2096955;28;20807;-82
2022/03/04 01:51:01;;;;;;;21.20;12.80;;;;;;;-5.00;100.00;92865.47;2105386;28;20729;-83
2022/03/04 01:52:02;;;;;;;21.73;13.38;;;;;;;-5.06;100.00;92868.28;2105230;28;20028;-82
2022/03/04 01:53:04;;;;;;;23.38;13.45;;;;;;;-5.08;100.00;92867.09;2097985;28;20020;-82
2022/03/04 01:54:05;;;;;;;17.13;13.07;;;;;;;-5.09;100.00;92868.94;2098293;28;20027;-81
2022/03/04 01:55:12;;;;;;;21.00;14.23;;;;;;;-4.96;100.00;92867.13;2096895;28;20162;-82
2022/03/04 01:56:13;;;;;;;23.27;13.45;;;;;;;-5.16;100.00;92866.09;2105208;28;20028;-81
2022/03/04 01:57:14;;;;;;;21.35;13.63;;;;;;;-5.08;100.00;92869.72;2097029;28;20017;-82
2022/03/04 01:58:15;;;;;;;18.88;12.85;;;;;;;-4.97;100.00;92859.63;2096932;28;20024;-81
2022/03/04 01:59:17;;;;;;;18.95;13.40;;;;;;;-5.15;100.00;92872.84;2113671;28;20050;-80
2022/03/04 02:00:17;;;;;;;18.15;13.45;;;;;;;-5.14;100.00;92860.56;2095947;28;20131;-83
2022/03/04 02:01:19;;;;;;;19.38;14.02;;;;;;;-4.99;100.00;92859.94;2088860;28;20025;-79
2022/03/04 02:02:20;;;;;;;20.23;13.82;;;;;;;-5.17;100.00;92867.19;2107915;28;20545;-81
2022/03/04 02:03:23;;;;;;;21.25;14.00;;;;;;;-5.23;100.00;92867.72;2117093;27;20076;-83
2022/03/04 02:04:25;;;;;;;23.63;13.35;;;;;;;-5.29;100.00;92863.81;2096981;28;20035;-79
2022/03/04 02:05:26;;;;;;;21.85;13.20;;;;;;;-5.30;100.00;92862.28;2089159;28;20021;-83
2022/03/04 02:06:27;;;;;;;19.85;13.55;;;;;;;-5.16;100.00;92868.72;2088606;28;20028;-83
2022/03/04 02:07:29;;;;;;;18.48;13.45;;;;;;;-5.20;100.00;92865.22;2109321;27;20016;-83
2022/03/04 02:08:30;;;;;;;19.00;13.27;;;;;;;-5.11;100.00;92855.47;2109295;28;20325;-84
2022/03/04 02:09:31;;;;;;;21.27;14.25;;;;;;;-5.12;100.00;92863.63;2088557;28;20027;-83
2022/03/04 02:11:43;;;;;;;;;;;;;;;-4.72;100.00;92858.53;2145104;27;20118;-79
2022/03/04 02:12:44;;;;;;;19.92;12.68;;;;;;;-4.72;100.00;92858.53;2120644;28;19923;-79
2022/03/04 02:13:45;;;;;;;20.55;12.57;;;;;;;-4.90;100.00;92860.59;2104038;28;20020;-80
2022/03/04 02:14:46;;;;;;;18.13;13.15;;;;;;;-4.94;100.00;92846.69;2104234;28;20024;-80
2022/03/04 02:15:47;;;;;;;18.20;12.98;;;;;;;-4.85;100.00;92854.41;2104056;28;20047;-81
2022/03/04 02:16:51;;;;;;;21.77;14.85;;;;;;;-5.01;100.00;92851.69;2112518;27;20041;-82
2022/03/04 02:17:52;;;;;;;19.02;14.23;;;;;;;-5.19;100.00;92851.13;2119225;27;20071;-82
2022/03/04 02:18:53;;;;;;;20.15;13.80;;;;;;;-5.19;100.00;92851.13;2119148;28;20027;-81
2022/03/04 02:19:55;;;;;;;18.80;13.90;;;;;;;-5.15;100.00;92846.78;2113919;28;20028;-80
2022/03/04 02:21:00;;;;;;;22.13;13.88;;;;;;;-5.21;100.00;92852.53;2110826;28;20094;-83
2022/03/04 02:22:04;;;;;;;19.35;13.13;;;;;;;-5.26;100.00;92850.91;2118942;28;20457;-82
2022/03/04 02:23:04;;;;;;;19.42;12.88;;;;;;;-5.11;100.00;92841.69;2119805;28;20016;-83
2022/03/04 02:24:05;;;;;;;20.10;13.80;;;;;;;-5.24;100.00;92851.31;2103642;28;20036;-81
2022/03/04 02:25:07;;;;;;;21.27;14.52;;;;;;;-5.33;100.00;92838.41;2127126;27;20019;-80
2022/03/04 02:26:07;;;;;;;21.02;14.38;;;;;;;-5.37;100.00;92850.53;2122833;27;20513;-80
2022/03/04 02:27:08;;;;;;;21.77;14.45;;;;;;;-5.26;100.00;92850.16;2119057;28;20023;-78
2022/03/04 02:28:10;;;;;;;22.75;14.23;;;;;;;-5.37;100.00;92847.19;2111951;28;20020;-80
2022/03/04 02:29:11;;;;;;;20.38;13.05;;;;;;;-5.40;100.00;92843.38;2103928;28;20016;-82
2022/03/04 02:30:12;;;;;;;19.70;13.43;;;;;;;-5.34;100.00;92843.94;2111249;27;20026;-80
2022/03/04 02:31:19;;;;;;;21.10;14.15;;;;;;;-5.36;100.00;92844.25;2122879;27;20106;-83
2022/03/04 02:32:20;;;;;;;21.88;14.18;;;;;;;-5.14;100.00;92839.72;2114387;28;20028;-82
2022/03/04 02:33:21;;;;;;;19.13;13.27;;;;;;;-5.19;100.00;92839.94;2112286;27;20493;-80
2022/03/04 02:34:22;;;;;;;19.55;13.70;;;;;;;-5.18;100.00;92836.25;2120164;27;20023;-82
2022/03/04 02:35:23;;;;;;;19.98;13.60;;;;;;;-5.25;100.00;92833.44;2118256;27;20067;-82
2022/03/04 02:36:24;;;;;;;17.58;12.90;;;;;;;-5.30;100.00;92831.03;2110016;28;20019;-82
2022/03/04 02:37:26;;;;;;;17.95;13.32;;;;;;;-5.28;100.00;92824.41;2106215;28;20050;-82
2022/03/04 02:38:27;;;;;;;19.00;13.55;;;;;;;-5.25;100.00;92831.56;2103762;28;20088;-82
2022/03/04 02:39:28;;;;;;;20.35;13.75;;;;;;;-5.33;100.00;92829.81;2101842;28;20388;-80
2022/03/04 02:40:29;;;;;;;20.25;13.65;;;;;;;-5.35;100.00;92829.41;2110433;28;20434;-81
2022/03/04 02:41:30;;;;;;;18.38;14.02;;;;;;;-5.35;100.00;92832.75;2112515;27;20043;-81
2022/03/04 02:42:37;;;;;;;21.95;14.93;;;;;;;-5.47;100.00;92830.13;2120822;27;20383;-82
2022/03/04 02:43:38;;;;;;;17.92;13.05;;;;;;;-5.50;100.00;92835.97;2112987;28;20020;-84
2022/03/04 02:44:39;;;;;;;19.88;12.95;;;;;;;-5.55;100.00;92833.56;2112369;28;20377;-80
2022/03/04 02:46:13;;;;;;;20.23;13.48;;;;;;;-5.43;100.00;92833.59;2118512;27;20471;-82
2022/03/04 02:47:14;;;;;;;17.83;12.48;;;;;;;-5.50;100.00;92833.38;2114902;28;20054;-82
2022/03/04 02:48:15;;;;;;;19.67;13.25;;;;;;;-5.54;100.00;92831.72;2111826;28;20020;-80
2022/03/04 02:49:16;;;;;;;17.75;12.93;;;;;;;-5.44;100.00;92833.94;2120757;27;20035;-81
2022/03/04 02:50:17;;;;;;;21.00;13.68;;;;;;;-5.34;100.00;92836.13;2120012;28;20027;-83
2022/03/04 02:51:18;;;;;;;21.70;13.50;;;;;;;-5.42;100.00;92831.75;2112276;28;20031;-82
2022/03/04 02:52:19;;;;;;;22.33;13.60;;;;;;;-5.43;100.00;92827.66;2120661;28;20110;-82
2022/03/04 02:53:20;;;;;;;18.65;13.02;;;;;;;-5.44;100.00;92828.72;2112276;27;20035;-82
2022/03/04 02:54:21;;;;;;;20.75;13.70;;;;;;;-5.54;100.00;92824.66;2120568;27;20056;-82
2022/03/04 02:55:22;;;;;;;20.58;13.05;;;;;;;-5.63;100.00;92831.81;2112097;28;20020;-82
2022/03/04 02:56:23;;;;;;;19.55;13.32;;;;;;;-5.75;100.00;92821.34;2118792;27;20654;-83
2022/03/04 02:57:24;;;;;;;19.73;13.50;;;;;;;-5.69;100.00;92825.28;2128206;27;20022;-82
2022/03/04 02:58:26;;;;;;;16.08;12.48;;;;;;;-5.73;100.00;92827.00;2112170;28;20020;-80
2022/03/04 02:59:26;;;;;;;17.20;13.15;;;;;;;-5.65;100.00;92824.34;2112294;28;20043;-82
2022/03/04 03:00:28;;;;;;;18.90;13.50;;;;;;;-5.68;100.00;92822.34;2111823;28;20019;-82
2022/03/04 03:01:29;;;;;;;20.25;13.75;;;;;;;-5.77;100.00;92826.13;2110093;28;20008;-79
2022/03/04 03:02:30;;;;;;;18.05;12.77;;;;;;;-5.73;100.00;92824.41;2111517;27;20024;-81
2022/03/04 03:03:31;;;;;;;18.33;12.85;;;;;;;-5.71;100.00;92823.00;2129096;27;20025;-80
2022/03/04 03:04:32;;;;;;;18.80;13.23;;;;;;;-5.71;100.00;92823.00;2112351;28;20421;-81
2022/03/04 03:05:33;;;;;;;17.63;13.30;;;;;;;-5.78;100.00;92822.78;2116377;28;20106;-81
2022/03/04 03:06:34;;;;;;;19.02;13.35;;;;;;;-5.70;100.00;92818.56;2116232;28;20030;-82
2022/03/04 03:07:36;;;;;;;20.90;13.30;;;;;;;-5.79;100.00;92825.69;2114375;27;20495;-82
2022/03/04 03:08:37;;;;;;;17.77;13.55;;;;;;;-5.80;100.00;92824.16;2125001;27;20068;-80
2022/03/04 03:09:38;;;;;;;19.23;12.98;;;;;;;-5.80;100.00;92822.31;2121019;27;20115;-81
2022/03/04 03:10:39;;;;;;;22.60;13.77;;;;;;;-5.85;100.00;92827.72;2123855;27;20022;-83
2022/03/04 03:11:40;;;;;;;17.92;13.50;;;;;;;-5.90;100.00;92825.31;2114910;27;20032;-80
2022/03/04 03:12:42;;;;;;;18.70;12.88;;;;;;;-5.91;100.00;92827.16;2124250;27;20022;-79
2022/03/04 03:13:43;;;;;;;18.70;12.95;;;;;;;-5.84;100.00;92819.63;2132866;27;20113;-79
2022/03/04 03:14:44;;;;;;;17.15;13.05;;;;;;;-5.68;100.00;92827.56;2113749;28;20053;-82
2022/03/04 03:15:45;;;;;;;18.80;12.82;;;;;;;-5.80;100.00;92824.91;2124434;27;20064;-79
2022/03/04 03:16:46;;;;;;;21.27;13.48;;;;;;;-5.83;100.00;92833.38;2122871;27;20020;-79
2022/03/04 03:17:47;;;;;;;21.27;14.45;;;;;;;-5.83;100.00;92834.16;2120183;27;20031;-82
2022/03/04 03:18:48;;;;;;;20.20;13.30;;;;;;;-5.79;100.00;92830.88;2116877;27;20027;-81
2022/03/04 03:19:49;;;;;;;18.63;13.52;;;;;;;-5.93;100.00;92831.94;2122803;27;20046;-79
2022/03/04 03:20:50;;;;;;;17.17;12.43;;;;;;;-5.94;100.00;92840.09;2124575;27;20771;-80
2022/03/04 03:21:51;;;;;;;20.85;13.38;;;;;;;-5.79;100.00;92838.69;2117158;27;20027;-79
2022/03/04 03:22:52;;;;;;;21.40;13.32;;;;;;;-5.89;100.00;92839.84;2110950;28;20143;-82
2022/03/04 03:23:53;;;;;;;17.08;12.00;;;;;;;-5.93;100.00;92839.00;2101420;28;20044;-80
2022/03/04 03:24:54;;;;;;;18.58;12.52;;;;;;;-5.72;100.00;92837.09;2112970;27;20020;-82
2022/03/04 03:25:55;;;;;;;22.23;13.80;;;;;;;-5.91;100.00;92842.03;2116666;27;20023;-81
2022/03/04 03:26:56;;;;;;;19.13;12.35;;;;;;;-5.94;100.00;92840.09;2114507;28;20028;-81
2022/03/04 03:27:57;;;;;;;17.52;12.70;;;;;;;-5.96;100.00;92837.81;2118530;27;20058;-79
2022/03/04 03:28:58;;;;;;;21.30;13.45;;;;;;;-6.10;100.00;92845.13;2108512;28;20031;-81
2022/03/04 03:29:59;;;;;;;19.27;13.07;;;;;;;-6.07;100.00;92839.25;2108403;28;20044;-80
2022/03/04 03:31:00;;;;;;;19.60;13.35;;;;;;;-6.17;100.00;92839.66;2110054;28;20023;-83
2022/03/04 03:32:02;;;;;;;19.05;13.68;;;;;;;-6.01;100.00;92848.41;2108131;28;20031;-83
2022/03/04 03:33:03;;;;;;;19.48;13.15;;;;;;;-6.01;100.00;92845.03;2100487;28;20028;-81
2022/03/04 03:34:04;;;;;;;17.95;13.57;;;;;;;-5.98;100.00;92845.16;2116786;27;20447;-81
2022/03/04 03:35:07;;;;;;;19.88;13.00;;;;;;;-6.02;100.00;92840.91;2124365;27;20610;-83
2022/03/04 03:36:09;;;;;;;25.48;14.07;;;;;;;-6.02;100.00;92851.31;2119007;27;20054;-81
2022/03/04 03:37:21;;;;;;;21.27;13.18;;;;;;;-6.11;100.00;92852.13;2104173;28;20106;-80
2022/03/04 03:38:22;;;;;;;18.02;12.88;;;;;;;-5.99;100.00;92848.09;2104665;28;20077;-80
2022/03/04 03:39:23;;;;;;;18.67;12.80;;;;;;;-5.98;100.00;92845.16;2110767;27;20025;-82
2022/03/04 03:40:24;;;;;;;17.70;12.98;;;;;;;-5.95;100.00;92848.97;2126627;27;20026;-79
2022/03/04 03:41:26;;;;;;;16.90;12.73;;;;;;;-5.89;100.00;92852.88;2121625;27;20319;-81
2022/03/04 03:42:27;;;;;;;18.55;12.30;;;;;;;-5.96;100.00;92843.00;2116248;27;20012;-82
2022/03/04 03:43:28;;;;;;;16.17;12.40;;;;;;;-5.89;100.00;92843.22;2106137;28;20097;-79
2022/03/04 03:44:29;;;;;;;17.65;13.00;;;;;;;-5.96;100.00;92852.66;2100143;28;20021;-82
2022/03/04 03:45:30;;;;;;;18.90;12.93;;;;;;;-5.96;100.00;92843.00;2099902;28;20024;-82
2022/03/04 03:46:31;;;;;;;17.83;12.18;;;;;;;-5.90;100.00;92843.53;2109814;28;20131;-80
2022/03/04 03:47:33;;;;;;;17.75;13.23;;;;;;;-5.92;100.00;92845.75;2096667;28;20396;-83
2022/03/04 03:48:34;;;;;;;20.08;13.13;;;;;;;-6.06;100.00;92845.97;2099971;27;20457;-80
2022/03/04 03:49:36;;;;;;;18.70;12.80;;;;;;;-6.05;100.00;92844.16;2101839;28;20105;-82
2022/03/04 03:50:38;;;;;;;18.52;12.32;;;;;;;-6.05;100.00;92844.16;2109798;27;20020;-82
2022/03/04 03:51:39;;;;;;;16.30;13.10;;;;;;;-6.07;100.00;92843.72;2115216;27;20470;-81
2022/03/04 03:52:40;;;;;;;18.98;12.45;;;;;;;-6.05;100.00;92844.16;2110558;28;20015;-83
2022/03/04 03:53:45;;;;;;;18.13;13.50;;;;;;;-6.16;100.00;92838.56;2115859;27;20111;-81
2022/03/04 03:54:53;;;;;;;19.25;12.73;;;;;;;-6.26;100.00;92847.53;2111362;27;20051;-82
2022/03/04 03:55:59;;;;;;;19.35;12.73;;;;;;;-6.22;100.00;92843.22;2120756;27;20038;-81
2022/03/04 03:57:01;;;;;;;21.38;13.45;;;;;;;-6.25;100.00;92841.22;2109217;27;20031;-83
2022/03/04 03:58:11;;;;;;;19.90;13.38;;;;;;;-6.23;100.00;92844.28;2106258;28;20081;-80
2022/03/04 03:59:12;;;;;;;;;;;;;;;-6.18;100.00;92846.69;2118623;27;20026;-80
2022/03/04 04:00:14;;;;;;;20.20;11.35;;;;;;;-6.16;100.00;92841.16;2105811;28;20004;-83
2022/03/04 04:01:15;;;;;;;22.58;12.20;;;;;;;-6.15;100.00;92843.44;2100422;28;20039;-82
2022/03/04 04:02:16;;;;;;;19.05;12.88;;;;;;;-6.17;100.00;92843.00;2101962;28;20021;-82
2022/03/04 04:03:17;;;;;;;18.30;12.25;;;;;;;-6.18;100.00;92843.34;2100449;28;20123;-84
2022/03/04 04:04:18;;;;;;;17.60;13.00;;;;;;;-6.20;100.00;92837.69;2100057;28;20038;-82
2022/03/04 04:05:19;;;;;;;17.50;12.68;;;;;;;-6.21;100.00;92842.13;2098425;28;20036;-83
2022/03/04 04:06:20;;;;;;;16.52;12.75;;;;;;;-6.10;100.00;92842.53;2101792;28;20517;-82
2022/03/04 04:07:21;;;;;;;20.75;13.35;;;;;;;-6.13;100.00;92846.50;2110302;28;20016;-79
2022/03/04 04:08:22;;;;;;;19.70;12.43;;;;;;;-6.16;100.00;92848.97;2096631;28;20017;-82
2022/03/04 04:09:23;;;;;;;17.35;12.95;;;;;;;-6.11;100.00;92852.13;2110876;28;20084;-82
2022/03/04 04:10:24;;;;;;;20.02;13.00;;;;;;;-6.14;100.00;92852.78;2110026;28;20329;-82
2022/03/04 04:11:25;;;;;;;19.33;12.85;;;;;;;-6.25;100.00;92859.44;2100714;28;20396;-82
2022/03/04 04:12:26;;;;;;;18.98;12.82;;;;;;;-6.36;100.00;92855.72;2101396;28;20135;-81
2022/03/04 04:13:27;;;;;;;21.25;13.55;;;;;;;-6.47;100.00;92855.31;2097624;28;20020;-79
2022/03/04 04:14:28;;;;;;;19.42;12.77;;;;;;;-6.36;100.00;92853.88;2099485;28;20023;-80
2022/03/04 04:15:29;;;;;;;19.52;12.82;;;;;;;-6.32;100.00;92861.81;2099436;28;20072;-83
2022/03/04 04:16:30;;;;;;;18.42;12.68;;;;;;;-6.33;100.00;92852.44;2103848;28;20082;-80
2022/03/04 04:17:31;;;;;;;18.70;13.02;;;;;;;-6.26;100.00;92860.53;2105954;28;20039;-82
2022/03/04 04:18:35;;;;;;;19.48;13.15;;;;;;;-6.41;100.00;92858.47;2097367;28;20546;-82
2022/03/04 04:19:37;;;;;;;17.00;13.18;;;;;;;-6.30;100.00;92853.66;2105596;28;20016;-83
2022/03/04 04:20:38;;;;;;;19.42;12.73;;;;;;;-6.22;100.00;92855.47;2105522;27;20177;-82
2022/03/04 04:21:39;;;;;;;19.15;12.75;;;;;;;-6.22;100.00;92858.06;2105820;28;20061;-82
2022/03/04 04:22:40;;;;;;;18.45;12.40;;;;;;;-6.29;100.00;92860.38;2109469;28;20024;-82
2022/03/04 04:23:41;;;;;;;21.92;12.13;;;;;;;-6.32;100.00;92851.41;2107754;28;20056;-82
2022/03/04 04:24:41;;;;;;;16.92;12.40;;;;;;;-6.27;100.00;92845.25;2118342;27;20129;-82
2022/03/04 04:25:42;;;;;;;20.10;12.65;;;;;;;-6.43;100.00;92860.63;2114072;28;20066;-81
2022/03/04 04:26:44;;;;;;;16.35;12.30;;;;;;;-6.39;100.00;92858.94;2107826;28;20020;-80
2022/03/04 04:27:45;;;;;;;19.60;13.10;;;;;;;-6.39;100.00;92857.09;2110268;27;20026;-80
2022/03/04 04:28:46;;;;;;;17.88;12.90;;;;;;;-6.47;100.00;92857.91;2109637;28;20027;-79
2022/03/04 04:29:47;;;;;;;20.88;12.55;;;;;;;-6.42;100.00;92856.94;2102068;28;20020;-81
2022/03/04 04:30:48;;;;;;;19.42;13.40;;;;;;;-6.37;100.00;92854.91;2100762;28;20062;-82
2022/03/04 04:31:49;;;;;;;19.30;12.93;;;;;;;-6.31;100.00;92855.50;2105762;28;20332;-80
2022/03/04 04:32:50;;;;;;;18.13;12.90;;;;;;;-6.31;100.00;92858.13;2116408;27;20098;-81
2022/03/04 04:33:51;;;;;;;18.23;12.10;;;;;;;-6.25;100.00;92861.28;2107696;28;20110;-82
2022/03/04 04:34:52;;;;;;;16.70;11.55;;;;;;;-6.31;100.00;92858.13;2106761;28;20020;-80
2022/03/04 04:35:53;;;;;;;21.90;13.15;;;;;;;-6.28;100.00;92851.50;2116449;27;20043;-81
2022/03/04 04:36:54;;;;;;;18.38;13.50;;;;;;;-6.35;100.00;92860.59;2107659;27;20024;-79
2022/03/04 04:37:56;;;;;;;17.38;11.70;;;;;;;-6.31;100.00;92860.72;2101650;28;20024;-83
2022/03/04 04:38:57;;;;;;;16.42;12.73;;;;;;;-6.46;100.00;92859.41;2103810;28;20035;-80
2022/03/04 04:39:58;;;;;;;20.05;12.98;;;;;;;-6.51;100.00;92854.41;2103796;28;20513;-83
2022/03/04 04:40:59;;;;;;;18.60;12.35;;;;;;;-6.54;100.00;92857.66;2114312;27;20023;-82